Time;durP1;ratioP1;P1;durP2;ratioP2;P2;SDS_P1;SDS_P2;PMS_P1;PMS_P2;Temp;Humidity;BMP_temperature;BMP_pressure;BME280_temperature;BME280_humidity;BME280_pressure;Samples;Min_cycle;Max_cycle;Signal;HPM_P1;HPM_P2
2022/03/02 00:00:30;;;;;;;0.95;0.93;;;0.00;99.90;;;;;;5106271;28;20303;-69
2022/03/02 00:02:56;;;;;;;1.00;1.00;;;-0.10;99.90;;;;;;5107581;28;20226;-69
2022/03/02 00:05:24;;;;;;;0.63;0.63;;;-0.30;99.90;;;;;;5103792;28;20214;-71
2022/03/02 00:07:50;;;;;;;0.73;0.73;;;-0.40;99.90;;;;;;5107355;28;20196;-70
2022/03/02 00:10:15;;;;;;;0.98;0.98;;;-0.50;99.90;;;;;;5107102;28;20210;-70
2022/03/02 00:12:41;;;;;;;1.05;1.05;;;-0.60;99.90;;;;;;5103568;28;20195;-71
2022/03/02 00:15:07;;;;;;;0.70;0.70;;;-0.60;99.90;;;;;;5106037;28;20208;-70
2022/03/02 00:17:32;;;;;;;0.70;0.70;;;-0.70;99.90;;;;;;5100139;28;20196;-71
2022/03/02 00:19:58;;;;;;;1.02;1.02;;;-0.80;99.90;;;;;;5105376;28;20204;-70
2022/03/02 00:22:24;;;;;;;0.70;0.70;;;-0.80;99.90;;;;;;5093253;28;20195;-71
2022/03/02 00:24:51;;;;;;;2.10;1.10;;;-0.90;99.90;;;;;;5104829;28;20215;-71
2022/03/02 00:27:24;;;;;;;0.70;0.70;;;-0.90;99.90;;;;;;5103650;28;20741;-71
2022/03/02 00:29:51;;;;;;;0.90;0.90;;;-1.00;99.90;;;;;;5106132;28;20293;-71
2022/03/02 00:32:17;;;;;;;0.70;0.70;;;-1.10;99.90;;;;;;5106224;28;20249;-71
2022/03/02 00:34:43;;;;;;;1.05;1.05;;;-1.20;99.90;;;;;;5105717;28;20196;-71
2022/03/02 00:37:08;;;;;;;0.70;0.70;;;-1.20;99.90;;;;;;5106711;28;20200;-71
2022/03/02 00:39:35;;;;;;;0.60;0.60;;;-1.30;99.90;;;;;;5107979;28;20195;-71
2022/03/02 00:42:01;;;;;;;0.70;0.70;;;-1.30;99.90;;;;;;5107928;28;20328;-71
2022/03/02 00:44:26;;;;;;;0.80;0.80;;;-1.40;99.90;;;;;;5104264;28;20298;-71
2022/03/02 00:46:52;;;;;;;0.60;0.60;;;-1.50;99.90;;;;;;5106913;28;20693;-71
2022/03/02 00:49:18;;;;;;;0.60;0.60;;;-1.50;99.90;;;;;;5106271;28;20223;-71
2022/03/02 00:51:44;;;;;;;0.73;0.73;;;-1.50;99.90;;;;;;5106900;28;20203;-71
2022/03/02 00:54:11;;;;;;;0.60;0.60;;;-1.40;99.90;;;;;;5106846;28;20711;-71
2022/03/02 00:56:36;;;;;;;0.80;0.80;;;-1.40;99.90;;;;;;5103137;28;20199;-73
2022/03/02 00:59:02;;;;;;;0.80;0.80;;;-1.30;99.90;;;;;;5106844;28;20188;-71
2022/03/02 01:01:28;;;;;;;0.98;0.98;;;-1.20;99.90;;;;;;5106694;28;20211;-71
2022/03/02 01:03:53;;;;;;;0.80;0.80;;;-1.20;99.90;;;;;;5106786;28;20203;-71
2022/03/02 01:06:19;;;;;;;0.77;0.77;;;-1.10;99.90;;;;;;5105458;28;20196;-72
2022/03/02 01:08:46;;;;;;;0.98;0.98;;;-1.10;99.90;;;;;;5105726;28;20199;-71
2022/03/02 01:11:12;;;;;;;0.80;0.80;;;-1.10;99.90;;;;;;5106916;28;20187;-72
2022/03/02 01:13:38;;;;;;;1.42;1.33;;;-1.10;99.90;;;;;;5106481;28;20555;-72
2022/03/02 01:16:04;;;;;;;0.90;0.90;;;-1.20;99.90;;;;;;5093249;28;20210;-71
2022/03/02 01:18:30;;;;;;;0.70;0.70;;;-1.20;99.90;;;;;;5101223;28;20204;-71
2022/03/02 01:20:56;;;;;;;0.77;0.77;;;-1.20;99.90;;;;;;5106658;28;20215;-72
2022/03/02 01:23:21;;;;;;;0.80;0.80;;;-1.20;99.90;;;;;;5108875;28;20220;-71
2022/03/02 01:25:47;;;;;;;0.70;0.70;;;-1.20;99.90;;;;;;5112088;28;20271;-72
2022/03/02 01:28:13;;;;;;;0.82;0.82;;;-1.30;99.90;;;;;;5110899;28;20677;-71
2022/03/02 01:30:39;;;;;;;0.73;0.73;;;-1.30;99.90;;;;;;5109996;28;20208;-71
2022/03/02 01:33:04;;;;;;;0.90;0.90;;;-1.30;99.90;;;;;;5109068;28;20211;-71
2022/03/02 01:35:30;;;;;;;0.52;0.52;;;-1.30;99.90;;;;;;5109200;28;20203;-70
2022/03/02 01:37:56;;;;;;;1.17;1.08;;;-1.20;99.90;;;;;;5109139;28;20204;-71
2022/03/02 01:40:21;;;;;;;0.80;0.80;;;-1.20;99.90;;;;;;5110085;28;20283;-71
2022/03/02 01:42:47;;;;;;;0.80;0.80;;;-1.10;99.90;;;;;;5109218;28;20678;-71
2022/03/02 01:45:14;;;;;;;1.00;1.00;;;-1.10;99.90;;;;;;5109841;28;20573;-71
2022/03/02 01:47:40;;;;;;;0.60;0.60;;;-1.10;99.90;;;;;;5109782;28;20203;-71
2022/03/02 01:50:09;;;;;;;2.55;1.98;;;-1.10;99.90;;;;;;5109150;28;20690;-71
2022/03/02 01:52:35;;;;;;;0.90;0.90;;;-1.10;99.90;;;;;;5109631;28;20696;-70
2022/03/02 01:55:01;;;;;;;1.63;1.52;;;-1.10;99.90;;;;;;5108855;28;20199;-71
2022/03/02 01:57:27;;;;;;;0.90;0.90;;;-0.90;99.90;;;;;;5109240;28;20199;-71
2022/03/02 01:59:53;;;;;;;0.80;0.80;;;-0.90;99.90;;;;;;5108612;28;20210;-71
2022/03/02 02:02:19;;;;;;;1.73;1.15;;;-0.90;99.90;;;;;;5109673;28;20248;-71
2022/03/02 02:04:45;;;;;;;0.63;0.63;;;-0.90;99.90;;;;;;5108525;28;20208;-72
2022/03/02 02:07:11;;;;;;;0.60;0.60;;;-0.80;99.90;;;;;;5108592;28;20618;-71
2022/03/02 02:09:36;;;;;;;0.90;0.90;;;-0.80;99.90;;;;;;5108946;28;20188;-71
2022/03/02 02:12:02;;;;;;;4.53;2.38;;;-0.80;99.90;;;;;;5110962;28;20271;-71
2022/03/02 02:14:28;;;;;;;0.98;0.98;;;-0.80;99.90;;;;;;5104198;28;20201;-71
2022/03/02 02:16:54;;;;;;;0.88;0.88;;;-0.70;99.90;;;;;;5111044;28;20604;-71
2022/03/02 02:19:20;;;;;;;0.68;0.68;;;-0.70;99.90;;;;;;5109879;28;20717;-71
2022/03/02 02:21:48;;;;;;;0.60;0.60;;;-0.70;99.90;;;;;;5108394;28;20199;-71
2022/03/02 02:24:16;;;;;;;0.70;0.70;;;-0.70;99.90;;;;;;5107979;28;20223;-71
2022/03/02 02:26:41;;;;;;;2.42;1.10;;;-0.70;99.90;;;;;;5109296;28;20574;-71
2022/03/02 02:29:07;;;;;;;0.70;0.70;;;-0.60;99.90;;;;;;5109365;28;20206;-71
2022/03/02 02:31:33;;;;;;;0.85;0.85;;;-0.60;99.90;;;;;;5109048;28;20279;-71
2022/03/02 02:33:59;;;;;;;1.00;1.00;;;-0.60;99.90;;;;;;5107725;28;20211;-71
2022/03/02 02:36:25;;;;;;;0.70;0.70;;;-0.60;99.90;;;;;;5107881;28;20248;-71
2022/03/02 02:38:51;;;;;;;0.60;0.60;;;-0.60;99.90;;;;;;5107790;28;20238;-72
2022/03/02 02:41:18;;;;;;;0.70;0.70;;;-0.60;99.90;;;;;;5109088;28;20199;-71
2022/03/02 02:43:44;;;;;;;1.58;1.48;;;-0.60;99.90;;;;;;5107801;28;20659;-71
2022/03/02 02:46:10;;;;;;;0.82;0.82;;;-0.60;99.90;;;;;;5107734;28;20575;-71
2022/03/02 02:48:37;;;;;;;0.60;0.60;;;-0.60;99.90;;;;;;5106542;28;20451;-71
2022/03/02 02:51:04;;;;;;;0.65;0.65;;;-0.70;99.90;;;;;;5106498;28;20207;-71
2022/03/02 02:53:30;;;;;;;0.70;0.70;;;-0.70;99.90;;;;;;5106242;28;20568;-71
2022/03/02 02:55:57;;;;;;;0.70;0.70;;;-0.70;99.90;;;;;;5106323;28;20269;-70
2022/03/02 02:58:23;;;;;;;0.80;0.80;;;-0.70;99.90;;;;;;5107785;28;20264;-71
2022/03/02 03:00:52;;;;;;;0.73;0.73;;;-0.80;99.90;;;;;;5100606;28;20200;-71
2022/03/02 03:03:18;;;;;;;0.90;0.90;;;-0.80;99.90;;;;;;5109235;28;20694;-72
2022/03/02 03:05:44;;;;;;;0.82;0.82;;;-0.70;99.90;;;;;;5108535;28;20246;-71
2022/03/02 03:08:13;;;;;;;0.80;0.80;;;-0.70;99.90;;;;;;5109627;28;20235;-71
2022/03/02 03:10:41;;;;;;;0.70;0.70;;;-0.70;99.90;;;;;;5102050;28;20253;-71
2022/03/02 03:13:07;;;;;;;0.95;0.95;;;-0.70;99.90;;;;;;5105325;28;20204;-71
2022/03/02 03:15:34;;;;;;;0.82;0.82;;;-0.60;99.90;;;;;;5106256;28;20210;-71
2022/03/02 03:17:59;;;;;;;0.73;0.73;;;-0.60;99.90;;;;;;5107148;28;20683;-71
2022/03/02 03:20:27;;;;;;;0.65;0.65;;;-0.60;99.90;;;;;;5095727;28;20282;-71
2022/03/02 03:22:54;;;;;;;0.90;0.90;;;-0.60;99.90;;;;;;5102674;28;20599;-71
2022/03/02 03:25:20;;;;;;;0.60;0.60;;;-0.60;99.90;;;;;;5106739;27;20344;-71
2022/03/02 03:27:46;;;;;;;0.75;0.75;;;-0.60;99.90;;;;;;5107077;28;20203;-71
2022/03/02 03:30:15;;;;;;;0.70;0.70;;;-0.60;99.90;;;;;;5105658;28;20207;-71
2022/03/02 03:32:41;;;;;;;1.33;1.13;;;-0.60;99.90;;;;;;5104274;28;20617;-71
2022/03/02 03:35:12;;;;;;;0.90;0.90;;;-0.60;99.90;;;;;;5104545;28;20207;-71
2022/03/02 03:37:41;;;;;;;0.70;0.70;;;-0.70;99.90;;;;;;5101707;28;20204;-70
2022/03/02 03:40:09;;;;;;;0.65;0.65;;;-0.70;99.90;;;;;;5095759;28;20206;-71
2022/03/02 03:42:35;;;;;;;0.63;0.63;;;-0.70;99.90;;;;;;5106631;28;20218;-71
2022/03/02 03:45:01;;;;;;;0.60;0.60;;;-0.70;99.90;;;;;;5107318;28;20675;-71
2022/03/02 03:47:27;;;;;;;0.75;0.75;;;-0.70;99.90;;;;;;5105298;28;20192;-71
2022/03/02 03:49:52;;;;;;;0.80;0.80;;;-0.70;99.90;;;;;;5092069;28;20616;-71
2022/03/02 03:52:18;;;;;;;0.80;0.80;;;-0.70;99.90;;;;;;5107662;28;20192;-71
2022/03/02 03:54:44;;;;;;;0.80;0.80;;;-0.70;99.90;;;;;;5105285;28;20685;-71
2022/03/02 03:57:10;;;;;;;0.70;0.70;;;-0.80;99.90;;;;;;5109566;28;20256;-72
2022/03/02 03:59:35;;;;;;;0.80;0.80;;;-0.70;99.90;;;;;;5106334;28;20195;-71
2022/03/02 04:02:01;;;;;;;0.70;0.70;;;-0.70;99.90;;;;;;5090277;28;20655;-72
2022/03/02 04:04:27;;;;;;;1.08;1.05;;;-0.80;99.90;;;;;;5090028;28;20643;-71
2022/03/02 04:06:52;;;;;;;0.93;0.93;;;-0.80;99.90;;;;;;5100943;28;20682;-69
2022/03/02 04:09:18;;;;;;;0.70;0.70;;;-0.70;99.90;;;;;;5104242;28;20199;-69
2022/03/02 04:11:44;;;;;;;0.70;0.70;;;-0.70;99.90;;;;;;5106240;28;20199;-69
2022/03/02 04:14:09;;;;;;;0.60;0.60;;;-0.80;99.90;;;;;;5103541;28;20208;-69
2022/03/02 04:16:36;;;;;;;1.85;1.15;;;-0.80;99.90;;;;;;5098935;28;20199;-69
2022/03/02 04:19:04;;;;;;;0.80;0.80;;;-0.80;99.90;;;;;;5104911;28;20676;-69
2022/03/02 04:21:30;;;;;;;1.00;1.00;;;-0.80;99.90;;;;;;5104441;28;20735;-69
2022/03/02 04:23:55;;;;;;;1.38;1.13;;;-0.80;99.90;;;;;;5105893;28;20215;-70
2022/03/02 04:26:21;;;;;;;0.70;0.70;;;-0.90;99.90;;;;;;5105708;28;20628;-69
2022/03/02 04:28:47;;;;;;;1.38;1.27;;;-0.90;99.90;;;;;;5107079;28;20615;-69
2022/03/02 04:31:12;;;;;;;6.03;3.33;;;-0.90;99.90;;;;;;5106976;28;20191;-69
2022/03/02 04:33:38;;;;;;;0.80;0.80;;;-0.80;99.90;;;;;;5107087;28;20199;-69
2022/03/02 04:36:05;;;;;;;0.63;0.63;;;-0.80;99.90;;;;;;5105962;28;20644;-69
2022/03/02 04:38:31;;;;;;;0.70;0.70;;;-0.80;99.90;;;;;;5103146;28;20287;-70
2022/03/02 04:40:57;;;;;;;0.80;0.80;;;-0.80;99.90;;;;;;5090607;28;20250;-70
2022/03/02 04:43:24;;;;;;;0.70;0.70;;;-0.90;99.90;;;;;;5105748;28;20204;-70
2022/03/02 04:45:50;;;;;;;0.80;0.80;;;-0.90;99.90;;;;;;5090152;28;20218;-70
2022/03/02 04:48:16;;;;;;;0.60;0.60;;;-0.90;99.90;;;;;;5106847;28;20211;-69
2022/03/02 04:50:41;;;;;;;0.70;0.70;;;-0.90;99.90;;;;;;5104668;28;20199;-70
2022/03/02 04:53:07;;;;;;;0.75;0.75;;;-0.90;99.90;;;;;;5108324;28;20512;-71
2022/03/02 04:55:33;;;;;;;0.70;0.70;;;-0.90;99.90;;;;;;5088785;28;20212;-70
2022/03/02 04:58:00;;;;;;;0.63;0.63;;;-0.90;99.90;;;;;;5094480;28;20274;-70
2022/03/02 05:00:32;;;;;;;0.70;0.70;;;-0.90;99.90;;;;;;5074742;28;20742;-70
2022/03/02 05:03:00;;;;;;;0.70;0.70;;;-0.90;99.90;;;;;;5108161;28;20218;-70
2022/03/02 05:05:27;;;;;;;0.70;0.70;;;-0.90;99.90;;;;;;5077093;28;20209;-69
2022/03/02 05:07:53;;;;;;;0.65;0.65;;;-1.00;99.90;;;;;;5110843;28;20203;-70
2022/03/02 05:10:21;;;;;;;0.60;0.60;;;-1.00;99.90;;;;;;5084175;28;20284;-70
2022/03/02 05:12:47;;;;;;;0.70;0.70;;;-1.00;99.90;;;;;;5109597;28;20232;-69
2022/03/02 05:15:14;;;;;;;0.60;0.60;;;-1.00;99.90;;;;;;5085515;28;20209;-69
2022/03/02 05:17:41;;;;;;;0.70;0.70;;;-1.00;99.90;;;;;;5082319;28;20674;-70
2022/03/02 05:20:09;;;;;;;0.75;0.75;;;-1.00;99.90;;;;;;5076259;28;20291;-70
2022/03/02 05:22:35;;;;;;;0.70;0.70;;;-1.00;99.90;;;;;;5105746;28;20237;-71
2022/03/02 05:25:03;;;;;;;0.70;0.70;;;-1.00;99.90;;;;;;5110370;28;20232;-70
2022/03/02 05:27:29;;;;;;;0.80;0.80;;;-1.00;99.90;;;;;;5109035;28;20284;-70
2022/03/02 05:29:54;;;;;;;1.98;1.00;;;-1.10;99.90;;;;;;5109379;28;20219;-71
2022/03/02 05:32:20;;;;;;;0.85;0.85;;;-1.00;99.90;;;;;;5110382;28;20213;-69
2022/03/02 05:34:46;;;;;;;0.70;0.70;;;-1.10;99.90;;;;;;5110458;28;20763;-70
2022/03/02 05:37:11;;;;;;;0.60;0.60;;;-1.10;99.90;;;;;;5110379;28;20226;-69
2022/03/02 05:39:37;;;;;;;0.75;0.75;;;-1.10;99.90;;;;;;5106632;28;20682;-70
2022/03/02 05:42:03;;;;;;;0.80;0.80;;;-1.20;99.90;;;;;;5108827;28;20713;-70
2022/03/02 05:44:29;;;;;;;0.70;0.70;;;-1.10;99.90;;;;;;5107500;28;20203;-70
2022/03/02 05:46:55;;;;;;;0.60;0.60;;;-1.10;99.90;;;;;;5107698;28;20539;-69
2022/03/02 05:49:21;;;;;;;0.73;0.73;;;-1.10;99.90;;;;;;5109839;28;20196;-70
2022/03/02 05:51:46;;;;;;;0.65;0.65;;;-1.10;99.90;;;;;;5108810;28;20205;-70
2022/03/02 05:54:12;;;;;;;0.73;0.73;;;-1.10;99.90;;;;;;5109981;28;20192;-70
2022/03/02 05:56:39;;;;;;;0.98;0.98;;;-1.10;99.90;;;;;;5094101;28;20188;-70
2022/03/02 05:59:06;;;;;;;1.30;1.20;;;-1.10;99.90;;;;;;5111390;28;20200;-70
2022/03/02 06:01:33;;;;;;;0.80;0.80;;;-1.10;99.90;;;;;;5110945;28;20191;-70
2022/03/02 06:04:00;;;;;;;0.70;0.70;;;-1.20;99.90;;;;;;5107432;28;20207;-69
2022/03/02 06:06:26;;;;;;;0.98;0.98;;;-1.30;99.90;;;;;;5108356;28;20199;-70
2022/03/02 06:08:51;;;;;;;2.30;2.15;;;-1.20;99.90;;;;;;5106395;28;20207;-70
2022/03/02 06:11:17;;;;;;;0.80;0.80;;;-1.20;99.90;;;;;;5107072;28;20224;-70
2022/03/02 06:13:43;;;;;;;0.70;0.70;;;-1.20;99.90;;;;;;5108473;28;20240;-70
2022/03/02 06:16:09;;;;;;;0.77;0.77;;;-1.20;99.90;;;;;;5103710;28;20244;-70
2022/03/02 06:18:35;;;;;;;0.70;0.70;;;-1.20;99.90;;;;;;5109228;28;20203;-72
2022/03/02 06:21:03;;;;;;;0.80;0.80;;;-1.20;99.90;;;;;;5108298;28;20228;-69
2022/03/02 06:23:30;;;;;;;0.70;0.70;;;-1.20;99.90;;;;;;5109199;28;20219;-69
2022/03/02 06:25:57;;;;;;;0.80;0.80;;;-1.20;99.90;;;;;;5109195;28;20223;-70
2022/03/02 06:28:26;;;;;;;0.60;0.60;;;-1.20;99.90;;;;;;5109091;28;20759;-70
2022/03/02 06:30:52;;;;;;;0.90;0.90;;;-1.20;99.90;;;;;;5105748;28;20199;-70
2022/03/02 06:33:19;;;;;;;0.70;0.70;;;-1.20;99.90;;;;;;5098652;28;20702;-71
2022/03/02 06:35:46;;;;;;;0.80;0.80;;;-1.10;99.90;;;;;;5084227;28;20219;-70
2022/03/02 06:38:12;;;;;;;0.80;0.80;;;-1.10;99.90;;;;;;5108078;28;20227;-70
2022/03/02 06:40:39;;;;;;;0.80;0.80;;;-1.20;99.90;;;;;;5108847;28;20253;-70
2022/03/02 06:43:07;;;;;;;0.70;0.70;;;-1.20;99.90;;;;;;5107943;28;20542;-70
2022/03/02 06:45:54;;;;;;;0.70;0.70;;;-1.20;99.90;;;;;;5106331;28;20203;-70
2022/03/02 06:48:29;;;;;;;0.70;0.70;;;-1.10;99.90;;;;;;5108709;28;20202;-70
2022/03/02 06:50:58;;;;;;;0.70;0.70;;;-1.10;99.90;;;;;;5107814;28;20683;-70
2022/03/02 06:53:30;;;;;;;0.70;0.70;;;-1.10;99.90;;;;;;5108457;28;20671;-70
2022/03/02 06:56:02;;;;;;;0.70;0.70;;;-0.90;99.90;;;;;;5104364;28;20204;-70
2022/03/02 06:58:50;;;;;;;0.70;0.70;;;-0.90;99.90;;;;;;5108436;28;20228;-70
2022/03/02 07:01:24;;;;;;;0.85;0.85;;;-0.90;99.90;;;;;;5107556;28;20580;-70
2022/03/02 07:03:54;;;;;;;0.63;0.63;;;-0.90;99.90;;;;;;5108790;28;20672;-71
2022/03/02 07:06:22;;;;;;;0.80;0.80;;;-0.90;99.90;;;;;;5107235;28;20309;-71
2022/03/02 07:08:51;;;;;;;0.60;0.60;;;-0.80;99.90;;;;;;5106134;28;20200;-70
2022/03/02 07:11:17;;;;;;;0.70;0.70;;;-0.80;99.90;;;;;;5107390;28;20727;-70
2022/03/02 07:13:45;;;;;;;1.13;1.13;;;-0.70;99.90;;;;;;5107226;28;20211;-70
2022/03/02 07:16:12;;;;;;;0.80;0.80;;;-0.60;99.90;;;;;;5074161;28;20242;-70
2022/03/02 07:18:39;;;;;;;0.70;0.70;;;-0.50;99.90;;;;;;5108762;28;20200;-70
2022/03/02 07:21:13;;;;;;;0.70;0.70;;;-0.50;99.90;;;;;;5108501;28;20194;-71
2022/03/02 07:23:54;;;;;;;0.85;0.85;;;-0.50;99.90;;;;;;5091974;28;20227;-71
2022/03/02 07:26:21;;;;;;;0.90;0.90;;;-0.50;99.90;;;;;;5108561;28;20248;-72
2022/03/02 07:28:48;;;;;;;0.70;0.70;;;-0.40;99.90;;;;;;5107712;28;20213;-71
2022/03/02 07:31:14;;;;;;;0.80;0.80;;;-0.30;99.90;;;;;;5106722;28;20299;-71
2022/03/02 07:33:42;;;;;;;0.70;0.70;;;-0.20;99.90;;;;;;5106739;28;20693;-71
2022/03/02 07:36:09;;;;;;;0.80;0.80;;;-0.20;99.90;;;;;;5091196;28;20231;-71
2022/03/02 07:38:36;;;;;;;0.70;0.70;;;-0.40;99.90;;;;;;5104588;28;20262;-71
2022/03/02 07:41:07;;;;;;;0.68;0.68;;;-0.50;99.90;;;;;;5107635;28;20637;-72
2022/03/02 07:43:38;;;;;;;2.40;1.40;;;-0.40;99.90;;;;;;5106719;28;20479;-71
2022/03/02 07:46:10;;;;;;;0.70;0.70;;;-0.30;99.90;;;;;;5105382;28;20215;-72
2022/03/02 07:48:39;;;;;;;0.73;0.73;;;-0.10;99.90;;;;;;5107604;28;20195;-71
2022/03/02 07:51:08;;;;;;;0.73;0.73;;;-0.10;99.90;;;;;;5104888;28;20202;-71
2022/03/02 07:53:44;;;;;;;0.70;0.70;;;0.00;99.90;;;;;;5102551;28;20274;-72
2022/03/02 07:56:11;;;;;;;0.70;0.70;;;0.00;99.90;;;;;;5104711;28;20199;-71
2022/03/02 07:58:41;;;;;;;0.52;0.52;;;0.00;99.90;;;;;;5107319;28;20210;-71
2022/03/02 08:01:08;;;;;;;0.60;0.60;;;0.00;99.90;;;;;;5107515;28;20197;-71
2022/03/02 08:03:41;;;;;;;0.70;0.70;;;0.00;99.90;;;;;;5103785;28;20195;-72
2022/03/02 08:06:07;;;;;;;0.77;0.77;;;0.10;99.90;;;;;;5107285;28;20207;-71
2022/03/02 08:08:36;;;;;;;0.90;0.90;;;0.20;99.90;;;;;;5106131;28;20243;-72
2022/03/02 08:11:12;;;;;;;0.65;0.65;;;0.30;99.90;;;;;;5107046;28;20191;-72
2022/03/02 08:13:38;;;;;;;0.88;0.88;;;0.30;99.90;;;;;;5105961;28;20191;-71
2022/03/02 08:16:13;;;;;;;0.68;0.68;;;0.40;99.90;;;;;;5096290;28;20244;-72
2022/03/02 08:18:38;;;;;;;0.70;0.70;;;0.30;99.90;;;;;;5093698;28;20244;-72
2022/03/02 08:21:18;;;;;;;0.70;0.70;;;0.30;99.90;;;;;;5081709;28;20282;-72
2022/03/02 08:23:58;;;;;;;0.73;0.73;;;0.30;99.90;;;;;;5106725;28;20302;-72
2022/03/02 08:26:32;;;;;;;0.65;0.65;;;0.20;99.90;;;;;;5104616;28;20215;-70
2022/03/02 08:29:04;;;;;;;0.73;0.73;;;0.20;99.90;;;;;;5107385;28;20203;-71
2022/03/02 08:31:31;;;;;;;0.57;0.57;;;0.30;99.90;;;;;;5102966;28;20252;-71
2022/03/02 08:34:06;;;;;;;0.70;0.70;;;0.30;99.90;;;;;;5106040;28;20200;-71
2022/03/02 08:36:36;;;;;;;0.60;0.60;;;0.40;99.90;;;;;;5104442;28;20215;-71
2022/03/02 08:39:33;;;;;;;0.98;0.90;;;0.40;99.90;;;;;;5104769;28;20207;-71
2022/03/02 08:42:06;;;;;;;0.70;0.70;;;0.60;99.90;;;;;;5107147;28;20639;-71
2022/03/02 08:44:32;;;;;;;0.55;0.55;;;0.70;99.90;;;;;;5098963;28;20744;-71
2022/03/02 08:46:58;;;;;;;0.70;0.70;;;0.70;99.90;;;;;;5091120;28;20629;-71
2022/03/02 08:49:27;;;;;;;1.35;1.25;;;0.60;99.90;;;;;;5104713;28;20534;-72
2022/03/02 08:51:56;;;;;;;0.60;0.60;;;0.50;99.90;;;;;;5094547;28;20762;-71
2022/03/02 08:54:24;;;;;;;0.75;0.75;;;0.70;99.90;;;;;;5094527;28;20280;-71
2022/03/02 08:56:53;;;;;;;0.60;0.60;;;1.30;99.90;;;;;;5083051;28;20662;-70
2022/03/02 09:02:53;;;;;;;0.82;0.82;;;1.60;99.90;;;;;;5068037;28;20219;-72
2022/03/02 09:09:03;;;;;;;0.70;0.70;;;1.50;99.90;;;;;;5069874;28;20223;-73
2022/03/02 09:11:35;;;;;;;0.70;0.70;;;1.60;99.90;;;;;;5054241;28;20215;-72
2022/03/02 09:20:25;;;;;;;0.70;0.70;;;1.70;99.90;;;;;;5073863;28;20212;-73
2022/03/02 09:22:51;;;;;;;1.30;1.10;;;2.30;99.90;;;;;;5054503;28;20209;-71
2022/03/02 09:29:08;;;;;;;0.75;0.75;;;3.20;99.90;;;;;;5073690;28;20673;-73
2022/03/02 09:31:36;;;;;;;1.23;1.13;;;3.80;99.90;;;;;;5014509;28;20218;-72
2022/03/02 09:34:09;;;;;;;0.60;0.60;;;4.20;99.90;;;;;;5012599;28;20645;-71
2022/03/02 09:36:37;;;;;;;0.60;0.60;;;4.70;99.90;;;;;;5028691;28;20214;-70
2022/03/02 09:39:09;;;;;;;0.60;0.60;;;4.90;99.90;;;;;;5006819;28;20211;-69
2022/03/02 09:42:05;;;;;;;3.25;1.60;;;5.30;99.90;;;;;;5008268;28;20207;-70
2022/03/02 09:45:04;;;;;;;0.70;0.70;;;5.40;99.90;;;;;;4996872;28;20198;-70
2022/03/02 09:47:56;;;;;;;0.80;0.80;;;5.90;99.90;;;;;;5011485;28;20261;-70
2022/03/02 09:50:24;;;;;;;0.98;0.98;;;6.10;99.90;;;;;;5011753;28;20260;-70
2022/03/02 09:52:54;;;;;;;1.35;1.23;;;6.10;99.90;;;;;;5028783;28;20277;-70
2022/03/02 09:55:22;;;;;;;0.70;0.70;;;6.40;99.90;;;;;;5029438;28;20214;-70
2022/03/02 09:57:53;;;;;;;0.70;0.70;;;6.60;99.90;;;;;;5028755;28;20232;-70
2022/03/02 10:00:22;;;;;;;0.70;0.70;;;6.70;99.90;;;;;;5028653;28;20217;-70
2022/03/02 10:02:59;;;;;;;0.60;0.60;;;6.80;99.90;;;;;;5098550;27;20222;-70
2022/03/02 10:05:30;;;;;;;1.85;1.38;;;7.30;99.90;;;;;;5110928;27;20203;-70
2022/03/02 10:07:55;;;;;;;0.88;0.88;;;7.20;99.90;;;;;;5108656;28;20236;-70
2022/03/02 10:10:23;;;;;;;0.70;0.70;;;7.30;99.90;;;;;;5109785;28;20675;-70
2022/03/02 10:12:51;;;;;;;0.70;0.70;;;7.20;99.90;;;;;;5108710;28;20205;-70
2022/03/02 10:15:19;;;;;;;0.80;0.80;;;7.50;99.90;;;;;;5099889;28;20211;-70
2022/03/02 10:17:48;;;;;;;1.33;1.20;;;7.60;99.90;;;;;;5110073;27;20219;-70
2022/03/02 10:20:16;;;;;;;0.70;0.70;;;7.30;99.90;;;;;;5110893;28;20374;-70
2022/03/02 10:23:29;;;;;;;0.70;0.70;;;7.30;99.90;;;;;;5111062;28;20198;-70
2022/03/02 10:26:12;;;;;;;0.60;0.60;;;7.30;99.90;;;;;;5083936;28;20595;-70
2022/03/02 10:29:11;;;;;;;0.60;0.60;;;7.60;99.90;;;;;;5108223;28;20253;-69
2022/03/02 10:31:52;;;;;;;2.45;1.80;;;7.80;99.90;;;;;;5110514;28;20195;-69
2022/03/02 10:34:55;;;;;;;0.70;0.65;;;8.00;99.90;;;;;;5109343;28;20689;-70
2022/03/02 10:37:35;;;;;;;0.70;0.70;;;8.10;99.90;;;;;;5052955;28;20251;-70
2022/03/02 10:40:16;;;;;;;0.70;0.70;;;8.20;99.90;;;;;;5064790;28;20679;-71
2022/03/02 10:43:00;;;;;;;0.52;0.52;;;8.60;99.90;;;;;;5050897;28;20375;-70
2022/03/02 10:45:41;;;;;;;0.60;0.60;;;8.80;99.90;;;;;;5034466;28;20214;-70
2022/03/02 10:48:19;;;;;;;1.10;1.05;;;8.50;99.90;;;;;;5068036;28;20822;-70
2022/03/02 10:50:46;;;;;;;0.60;0.60;;;8.80;99.90;;;;;;5051520;28;20784;-70
2022/03/02 10:53:18;;;;;;;0.93;0.88;;;8.90;99.90;;;;;;5051462;28;20285;-71
2022/03/02 10:55:46;;;;;;;0.60;0.60;;;9.20;99.90;;;;;;5051145;28;20205;-71
2022/03/02 10:58:17;;;;;;;0.60;0.60;;;9.20;99.90;;;;;;5051021;28;20307;-71
2022/03/02 11:00:44;;;;;;;0.90;0.90;;;9.10;99.90;;;;;;5050708;28;20660;-71
2022/03/02 11:03:12;;;;;;;0.70;0.70;;;9.10;99.90;;;;;;5051133;28;20245;-70
2022/03/02 11:05:39;;;;;;;0.60;0.60;;;8.80;99.90;;;;;;5050746;28;20225;-71
2022/03/02 11:08:05;;;;;;;1.02;0.93;;;9.10;99.90;;;;;;5034006;28;20657;-71
2022/03/02 11:10:37;;;;;;;0.60;0.60;;;9.10;99.90;;;;;;5053383;28;20289;-70
2022/03/02 11:13:12;;;;;;;0.60;0.60;;;9.40;99.90;;;;;;5102297;28;20200;-71
2022/03/02 11:15:52;;;;;;;0.60;0.60;;;9.20;99.90;;;;;;5107083;28;20215;-70
2022/03/02 11:18:39;;;;;;;0.65;0.65;;;9.40;99.90;;;;;;5108738;28;20195;-70
2022/03/02 11:21:06;;;;;;;0.70;0.70;;;9.40;99.90;;;;;;5102407;28;20217;-71
2022/03/02 11:23:43;;;;;;;0.50;0.50;;;9.50;99.90;;;;;;5108414;28;20261;-71
2022/03/02 11:26:16;;;;;;;0.65;0.65;;;9.80;99.90;;;;;;5092275;28;20239;-71
2022/03/02 11:28:50;;;;;;;0.88;0.88;;;10.40;99.90;;;;;;5108962;28;20218;-71
2022/03/02 11:31:24;;;;;;;0.60;0.60;;;10.50;99.90;;;;;;5095575;28;20200;-71
2022/03/02 11:33:51;;;;;;;0.60;0.60;;;10.50;99.90;;;;;;5109511;28;20684;-72
2022/03/02 11:36:19;;;;;;;0.60;0.60;;;10.20;99.90;;;;;;5074690;28;20205;-72
2022/03/02 11:38:51;;;;;;;0.60;0.60;;;10.20;99.90;;;;;;5108176;28;20208;-71
2022/03/02 11:41:18;;;;;;;0.60;0.60;;;10.10;99.90;;;;;;5092872;28;20203;-71
2022/03/02 11:43:44;;;;;;;0.60;0.60;;;9.90;99.90;;;;;;5075155;28;20259;-73
2022/03/02 11:46:11;;;;;;;2.75;1.63;;;9.90;99.90;;;;;;5089017;28;20269;-72
2022/03/02 11:48:43;;;;;;;0.57;0.57;;;10.00;99.90;;;;;;5107760;28;20200;-72
2022/03/02 11:51:20;;;;;;;0.60;0.60;;;10.20;99.90;;;;;;5076666;28;20273;-72
2022/03/02 11:53:51;;;;;;;0.60;0.60;;;10.20;99.90;;;;;;5107053;28;20207;-72
2022/03/02 11:56:19;;;;;;;0.60;0.60;;;10.10;99.90;;;;;;5092948;28;20687;-73
2022/03/02 11:59:07;;;;;;;0.90;0.80;;;10.10;99.90;;;;;;5106570;28;20341;-71
2022/03/02 12:01:53;;;;;;;0.60;0.60;;;10.00;99.90;;;;;;5090770;28;20651;-72
2022/03/02 12:04:19;;;;;;;0.60;0.60;;;10.10;99.90;;;;;;5074129;28;20231;-72
2022/03/02 12:06:51;;;;;;;0.60;0.60;;;10.10;99.90;;;;;;5106064;28;20208;-72
2022/03/02 12:09:24;;;;;;;1.05;0.98;;;9.90;99.90;;;;;;5075050;28;20199;-70
2022/03/02 12:11:50;;;;;;;0.60;0.60;;;10.10;99.90;;;;;;5073756;28;20257;-72
2022/03/02 12:14:16;;;;;;;0.50;0.50;;;10.00;99.90;;;;;;5107423;28;20589;-71
2022/03/02 12:16:51;;;;;;;0.50;0.50;;;10.10;99.90;;;;;;5107801;28;20222;-72
2022/03/02 12:19:27;;;;;;;0.60;0.60;;;10.10;99.90;;;;;;5108680;28;20563;-72
2022/03/02 12:22:05;;;;;;;0.60;0.60;;;9.90;99.90;;;;;;5110148;28;20239;-72
2022/03/02 12:24:33;;;;;;;0.60;0.60;;;9.90;99.90;;;;;;5109861;28;20225;-72
2022/03/02 12:27:11;;;;;;;0.60;0.60;;;10.10;99.90;;;;;;5108064;28;20868;-72
2022/03/02 12:29:42;;;;;;;0.70;0.70;;;10.40;99.90;;;;;;5109164;28;20223;-72
2022/03/02 12:32:11;;;;;;;1.08;1.02;;;10.60;99.90;;;;;;5109917;28;20646;-72
2022/03/02 12:34:40;;;;;;;0.60;0.60;;;10.50;99.90;;;;;;5092530;28;20203;-72
2022/03/02 12:37:07;;;;;;;0.80;0.80;;;10.50;99.90;;;;;;5092527;28;20234;-71
2022/03/02 12:39:34;;;;;;;0.60;0.60;;;10.40;99.90;;;;;;5107100;28;20628;-71
2022/03/02 12:42:04;;;;;;;0.60;0.60;;;10.40;99.90;;;;;;5091949;28;20208;-71
2022/03/02 12:44:35;;;;;;;0.60;0.60;;;10.30;99.90;;;;;;5106381;28;20244;-70
2022/03/02 12:47:20;;;;;;;0.60;0.60;;;10.50;99.90;;;;;;5096198;28;20208;-72
2022/03/02 12:50:06;;;;;;;0.60;0.60;;;10.50;99.90;;;;;;5109305;28;20204;-72
2022/03/02 12:52:48;;;;;;;1.85;0.70;;;10.00;99.90;;;;;;5100855;28;20229;-73
2022/03/02 12:56:43;;;;;;;14.55;1.45;;;10.00;99.90;;;;;;5095895;28;20294;-72
2022/03/02 12:58:50;;;;;;;0.63;0.63;;;10.00;99.90;;;;;;5083739;28;20257;-77
2022/03/02 13:05:10;;;;;;;1.00;1.00;;;9.80;99.90;;;;;;5041475;28;20554;-76
2022/03/02 13:07:35;;;;;;;1.05;1.00;;;9.70;99.90;;;;;;5090350;28;20196;-75
2022/03/02 13:10:34;;;;;;;0.68;0.68;;;9.70;99.90;;;;;;5113671;28;20197;-75
2022/03/02 13:13:22;;;;;;;0.60;0.60;;;9.50;99.90;;;;;;5041465;28;20303;-77
2022/03/02 13:15:51;;;;;;;0.65;0.65;;;9.30;99.90;;;;;;5059996;28;20211;-77
2022/03/02 13:18:20;;;;;;;1.23;0.93;;;8.90;99.90;;;;;;5096889;28;20277;-77
2022/03/02 13:32:05;;;;;;;0.63;0.63;;;8.00;99.90;;;;;;4973062;28;20214;-77
2022/03/02 13:34:35;;;;;;;0.60;0.60;;;8.40;99.90;;;;;;4992129;28;20631;-76